createdAt,value
2018-11-22T12:16:00.436Z,4.28
2018-11-22T12:19:05.234Z,4.32
2018-11-22T12:22:09.783Z,4.33
2018-11-22T12:25:18.806Z,4.52
2018-11-22T12:28:23.357Z,4.31
2018-11-22T12:31:27.948Z,4.44
2018-11-22T12:35:36.234Z,4.49
2018-11-22T12:38:40.822Z,4.43
2018-11-22T12:41:45.477Z,4.51
2018-11-22T12:44:50.166Z,4.21
2018-11-22T12:47:54.852Z,4.30
2018-11-22T12:50:59.631Z,4.33
2018-11-22T12:54:04.172Z,4.29
2018-11-22T12:57:08.733Z,4.35
2018-11-22T13:00:15.833Z,4.28
2018-11-22T13:03:20.439Z,4.36
2018-11-22T13:06:25.096Z,4.45
2018-11-22T13:09:29.663Z,4.30
2018-11-22T13:12:34.315Z,4.29
2018-11-22T13:15:38.943Z,4.33
2018-11-22T13:18:43.779Z,4.32
2018-11-22T13:21:48.416Z,4.29
2018-11-22T13:24:52.996Z,4.52
2018-11-22T13:27:57.601Z,4.59
2018-11-22T13:31:02.476Z,4.63
2018-11-22T13:34:07.279Z,4.41
2018-11-22T13:37:11.997Z,4.60
2018-11-22T13:40:16.730Z,4.33
2018-11-22T13:43:21.344Z,4.42
2018-11-22T13:46:26.226Z,4.37
2018-11-22T13:49:30.828Z,4.62
2018-11-22T13:52:37.267Z,4.57
2018-11-22T13:55:40.045Z,4.67
2018-11-22T13:58:44.871Z,4.69
2018-11-22T14:01:49.436Z,4.73
2018-11-22T14:04:54.077Z,4.56
2018-11-22T14:07:58.775Z,4.54
2018-11-22T14:11:03.421Z,4.55
2018-11-22T14:14:08.090Z,4.38
2018-11-22T14:17:12.923Z,4.53
2018-11-22T14:20:21.761Z,4.67
2018-11-22T14:23:26.376Z,4.75
2018-11-22T14:26:30.979Z,4.58
2018-11-22T14:29:35.828Z,4.68
2018-11-22T14:32:42.006Z,4.63
2018-11-22T14:35:46.771Z,4.53
2018-11-22T14:38:51.423Z,4.79
2018-11-22T14:41:55.975Z,4.51
2018-11-22T14:45:00.698Z,4.41
2018-11-22T14:48:05.690Z,4.45
2018-11-22T14:51:22.721Z,4.45
2018-11-22T14:54:27.266Z,4.38
2018-11-22T14:57:31.915Z,4.48
2018-11-22T15:00:36.640Z,4.51
2018-11-22T15:03:41.135Z,4.54
2018-11-22T15:06:45.864Z,4.52
2018-11-22T15:09:50.633Z,4.48
2018-11-22T15:12:55.305Z,4.43
2018-11-22T15:16:00.076Z,4.39
2018-11-22T15:19:04.625Z,4.30
2018-11-22T15:22:09.317Z,4.28
2018-11-22T15:25:16.585Z,4.23
2018-11-22T15:28:21.260Z,4.27
2018-11-22T15:31:25.899Z,4.17
2018-11-22T15:34:30.804Z,4.12
2018-11-22T15:37:35.653Z,4.08
2018-11-22T15:40:40.192Z,4.05
2018-11-22T15:43:44.688Z,3.97
2018-11-22T15:46:52.341Z,3.97
2018-11-22T15:49:56.931Z,3.86
2018-11-22T15:53:01.513Z,3.81
2018-11-22T15:56:06.247Z,3.68
2018-11-22T15:59:10.809Z,3.57
2018-11-22T16:02:15.690Z,3.45
2018-11-22T16:05:20.973Z,3.19
2018-11-22T16:08:25.549Z,3.09
2018-11-22T16:11:30.304Z,3.07
2018-11-22T16:14:34.879Z,2.78
2018-11-22T16:17:40.078Z,2.59
2018-11-22T16:20:44.864Z,2.47
2018-11-22T16:23:49.515Z,2.29
2018-11-22T16:26:54.145Z,2.13
2018-11-22T16:30:12.077Z,1.96
2018-11-22T16:33:22.748Z,1.74
2018-11-22T16:36:27.432Z,1.64
2018-11-22T16:39:32.078Z,1.60
2018-11-22T16:42:36.735Z,1.71
2018-11-22T16:45:41.251Z,1.55
2018-11-22T16:48:45.904Z,1.45
2018-11-22T16:51:50.477Z,1.14
2018-11-22T16:54:54.975Z,1.07
2018-11-22T16:58:00.809Z,0.99
2018-11-22T17:01:05.571Z,0.93
2018-11-22T17:04:10.311Z,0.92
2018-11-22T17:07:14.929Z,0.83
2018-11-22T17:10:20.903Z,0.61
2018-11-22T17:13:25.485Z,0.44
2018-11-22T17:16:30.103Z,0.38
2018-11-22T17:19:34.737Z,0.35
2018-11-22T17:22:39.867Z,0.34
2018-11-22T17:25:44.383Z,0.33
2018-11-22T17:28:48.965Z,0.10
2018-11-22T17:31:53.619Z,0.10
2018-11-22T17:34:58.057Z,0.01
2018-11-22T17:38:04.092Z,0.03
2018-11-22T17:41:08.760Z,0.08
2018-11-22T17:44:13.323Z,0.30
2018-11-22T17:47:18.145Z,0.22
2018-11-22T17:50:25.336Z,0.09
2018-11-22T17:53:29.953Z,0.07
2018-11-22T17:56:34.540Z,0.09
2018-11-22T17:59:39.302Z,0.12
2018-11-22T18:02:44.864Z,0.21
2018-11-22T18:05:50.164Z,0.23
2018-11-22T18:08:54.730Z,0.19
2018-11-22T18:11:59.324Z,0.12
2018-11-22T18:15:03.975Z,0.10
2018-11-22T18:18:08.635Z,0.12
2018-11-22T18:21:13.203Z,0.05
2018-11-22T18:24:17.905Z,-0.16
2018-11-22T18:27:22.434Z,-0.19
2018-11-22T18:30:28.573Z,-0.22
2018-11-22T18:33:33.197Z,-0.24
2018-11-22T18:36:44.265Z,-0.31
2018-11-22T18:39:48.865Z,-0.33
2018-11-22T18:42:54.603Z,-0.52
2018-11-22T18:45:59.209Z,-0.62
2018-11-22T18:49:03.907Z,-0.49
2018-11-22T18:52:08.555Z,-0.64
2018-11-22T18:55:13.306Z,-0.76
2018-11-22T18:58:17.868Z,-0.78
2018-11-22T19:01:22.414Z,-0.63
2018-11-22T19:04:27.084Z,-0.84
2018-11-22T19:07:32.146Z,-0.83
2018-11-22T19:10:38.226Z,-0.85
2018-11-22T19:13:42.838Z,-0.94
2018-11-22T19:16:47.468Z,-1.12
2018-11-22T19:19:52.066Z,-1.00
2018-11-22T19:22:57.284Z,-1.20
2018-11-22T19:26:02.000Z,-1.21
2018-11-22T19:29:06.727Z,-1.16
2018-11-22T19:32:11.316Z,-1.24
2018-11-22T19:35:17.213Z,-1.28
2018-11-22T19:38:21.924Z,-1.32
2018-11-22T19:41:26.457Z,-1.23
2018-11-22T19:44:31.676Z,-1.29
2018-11-22T19:47:36.330Z,-1.25
2018-11-22T19:50:40.919Z,-1.40
2018-11-22T19:53:45.592Z,-1.39
2018-11-22T19:56:50.285Z,-1.41
2018-11-22T19:59:54.935Z,-1.48
2018-11-22T20:03:01.016Z,-1.32
2018-11-22T20:06:06.318Z,-1.44
2018-11-22T20:09:12.166Z,-1.47
2018-11-22T20:12:16.841Z,-1.44
2018-11-22T20:15:21.776Z,-1.50
2018-11-22T20:18:26.495Z,-1.65
2018-11-22T20:21:31.383Z,-1.68
2018-11-22T20:24:36.079Z,-1.66
2018-11-22T20:27:41.198Z,-1.75
2018-11-22T20:30:48.058Z,-1.76
2018-11-22T20:33:52.932Z,-1.87
2018-11-22T20:36:57.561Z,-1.95
2018-11-22T20:40:02.221Z,-1.96
2018-11-22T20:43:07.204Z,-1.92
2018-11-22T20:46:12.706Z,-1.85
2018-11-22T20:49:17.409Z,-1.90
2018-11-22T20:52:22.239Z,-1.92
2018-11-22T20:55:28.549Z,-1.78
2018-11-22T20:58:33.217Z,-1.77
2018-11-22T21:01:38.073Z,-1.89
2018-11-22T21:04:42.737Z,-2.01
2018-11-22T21:07:47.557Z,-2.06
2018-11-22T21:10:52.384Z,-2.09
2018-11-22T21:13:57.073Z,-2.10
2018-11-22T21:17:02.132Z,-1.97
2018-11-22T21:20:08.685Z,-2.02
2018-11-22T21:23:13.267Z,-2.09
2018-11-22T21:26:17.953Z,-2.10
2018-11-22T21:29:22.564Z,-2.06
2018-11-22T21:32:27.176Z,-2.03
2018-11-22T21:35:32.278Z,-1.96
2018-11-22T21:38:36.944Z,-2.08
2018-11-22T21:41:41.904Z,-2.24
2018-11-22T21:44:46.502Z,-2.28
2018-11-22T21:47:51.278Z,-2.28
2018-11-22T21:50:55.929Z,-2.30
2018-11-22T21:54:01.052Z,-2.35
2018-11-22T21:57:05.770Z,-2.27
2018-11-22T22:00:23.184Z,-2.34
2018-11-22T22:03:27.731Z,-2.42
2018-11-22T22:06:32.340Z,-2.47
2018-11-22T22:09:37.090Z,-2.37
2018-11-22T22:12:42.586Z,-2.45
2018-11-22T22:15:47.260Z,-2.58
2018-11-22T22:18:51.848Z,-2.46
2018-11-22T22:21:56.424Z,-2.50
2018-11-22T22:25:00.937Z,-2.47
2018-11-22T22:28:05.667Z,-2.54
2018-11-22T22:31:10.318Z,-2.57
2018-11-22T22:34:14.921Z,-2.49
2018-11-22T22:37:19.481Z,-2.50
2018-11-22T22:40:26.577Z,-2.65
2018-11-22T22:43:31.144Z,-2.66
2018-11-22T22:46:35.715Z,-2.54
2018-11-22T22:49:40.335Z,-2.55
2018-11-22T22:52:45.283Z,-2.68
2018-11-22T22:55:50.011Z,-2.72
2018-11-22T22:58:55.342Z,-2.74
2018-11-22T23:01:59.996Z,-2.71
2018-11-22T23:05:04.845Z,-2.69
2018-11-22T23:08:09.448Z,-2.70
2018-11-22T23:11:14.183Z,-2.71
2018-11-22T23:14:18.751Z,-2.78
2018-11-22T23:17:23.408Z,-2.83
2018-11-22T23:20:30.173Z,-2.84
2018-11-22T23:23:34.741Z,-2.87
2018-11-22T23:26:39.276Z,-2.83
2018-11-22T23:29:43.912Z,-2.83
2018-11-22T23:32:52.510Z,-2.91
2018-11-22T23:35:57.239Z,-2.91
2018-11-22T23:39:01.872Z,-2.83
2018-11-22T23:42:07.020Z,-2.89
2018-11-22T23:45:12.856Z,-2.98
2018-11-22T23:48:17.606Z,-2.96
2018-11-22T23:51:22.149Z,-3.02
2018-11-22T23:54:26.824Z,-3.02
2018-11-22T23:57:31.491Z,-3.00
